Susank, Kansas
Current Conditions -  °F | °C
As of 7:35 AM on Saturday 20 Dec 2014 (Local Time) from KGBD Reporting Station
Clear Clear  
Wind Chill: 22°   Ceiling: Unl
Heat Index: 28°   Visibility: 3mi
Dew Point: 25°   Wind: 6mph
Humidity: 86%   Direction: 200°SSW
Pressure: 30.11"   Gusts: NA
Location:  38.6086°N, 98.8666°W
Report Text: KGBD 201335Z AUTO 20005KT 3SM CLR M02/M04 A3011 RMK AO1
Loading
Personal Weather Stations






























Interactive Weather Map New forecast layout! Learn more

10-Day Weather Forecast

Advertisements
Track Severe Weather on mobile